Route Details

Aircraft Information
Group: North America Fleet
Types: B738, B752, B762, B763
Route Data
Distance: 622nm
Duration: 2h 20m
Origin METAR: KABE 160051Z 18005KT 10SM SCT070 24/10 A2999 RMK AO2 SLP152 T02390100
Dest. METAR: KRFD 160054Z 05003KT 10SM SCT100 OVC250 22/17 A3009 RMK AO2 SLP188 T02220167 $
Freight Data
(for Aug 16, 2022)
Load Factor:
36%
Manifested Cargo: 31,751lbs
Financial History
Total Freight: 322,587lbs
Average Load: 0lbs/flt
Fuel Used: 127,217lbs
Avg. Fuel Used: 0lbs/flt
Fuel Expense: $69,762
Avg. Fuel Expense: $0
Avg. Fuel Cost: $0/lbs
Total Gross Income: $505,031
Pilot Pay: $1,313
Total Expenses: $70,573
Total Revenue: $361,407
Average Revenue: $0

Capitol Logistics 312




KABE
Lehigh Valley International Airport
Allentown, Pennsylvania
KRFD
Chicago/Rockford International Airport
Rockford, Illinois

Activity Log

Date Flight Route Aircraft Duration
08/02/2022 CPX312 DCT ETX V30 PSB J60 JOT DCT RFD DCT B762 2h 04m
07/19/2022 CPX312 DCT ETX V30 PSB J60 JOT DCT QUOTE DCT RFD DCT B763 2h 02m
08/29/2021 CPX7315 BEERS MIP J146 GIJ B763 2h 20m
04/18/2021 CPX9916 PSB J60 JOT V171 RFD B738 2h 02m
04/03/2020 CPX322 PSB J60 JOT V171 RFD B763 1h 55m
02/25/2020 CPX322 PSB J60 JOT V171 RFD B763 2h 00m
01/16/2019 CPX410 ETX V30 PSB J60 JOT QUOTE RFD B752 2h 00m